Terminal Aerodrome Forecast
Issued by NWS

Home | Current Version | Previous Version | Text Only | Print | Product List | Glossary On
Versions: 1 2 3 4 5 6 7 8 9 10 11 12
000
FTUS44 KTSA 021120
TAFBVO
TAF
KBVO 021120Z 0212/0312 25008KT P6SM SCT250
     FM021500 30007KT P6SM BKN120
     FM022000 02010KT P6SM SCT060 BKN120
     FM030200 VRB04KT P6SM BKN100=

USA.gov is the U.S. government's official web portal to all federal, state and local government web resources and services.